createdAt,value
2022-11-07T00:01:47.005Z,5.95
2022-11-07T00:04:14.389Z,6.97
2022-11-07T00:06:41.958Z,6.32
2022-11-07T00:09:08.829Z,5.90
2022-11-07T00:11:35.862Z,6.35
2022-11-07T00:14:02.822Z,6.65
2022-11-07T00:16:30.781Z,5.35
2022-11-07T00:18:57.734Z,5.78
2022-11-07T00:21:24.727Z,5.88
2022-11-07T00:23:51.656Z,5.63
2022-11-07T00:26:18.908Z,5.25
2022-11-07T00:28:45.790Z,5.55
2022-11-07T00:31:14.415Z,6.07
2022-11-07T00:33:42.386Z,5.50
2022-11-07T00:36:10.750Z,5.97
2022-11-07T00:38:37.727Z,6.15
2022-11-07T00:41:06.055Z,5.85
2022-11-07T00:43:33.761Z,5.93
2022-11-07T00:46:02.774Z,4.72
2022-11-07T00:48:30.788Z,5.60
2022-11-07T00:50:58.169Z,5.47
2022-11-07T00:53:25.012Z,5.38
2022-11-07T00:55:51.973Z,5.00
2022-11-07T00:58:18.815Z,5.07
2022-11-07T01:00:45.784Z,6.10
2022-11-07T01:03:31.162Z,5.25
2022-11-07T01:06:00.247Z,5.55
2022-11-07T01:08:28.094Z,5.40
2022-11-07T01:10:55.732Z,5.50
2022-11-07T01:13:23.803Z,5.60
2022-11-07T01:15:51.486Z,6.20
2022-11-07T01:18:18.697Z,5.78
2022-11-07T01:20:45.757Z,5.55
2022-11-07T01:23:13.041Z,5.45
2022-11-07T01:25:40.465Z,5.43
2022-11-07T01:28:08.783Z,5.38
2022-11-07T01:30:43.406Z,5.38
2022-11-07T01:33:11.029Z,6.18
2022-11-07T01:35:38.704Z,5.75
2022-11-07T01:38:06.030Z,5.57
2022-11-07T01:40:52.870Z,6.03
2022-11-07T01:43:19.950Z,5.88
2022-11-07T01:45:46.703Z,5.65
2022-11-07T01:48:13.842Z,5.70
2022-11-07T01:50:40.846Z,5.70
2022-11-07T01:53:07.938Z,6.93
2022-11-07T01:55:36.054Z,6.47
2022-11-07T01:58:07.489Z,6.10
2022-11-07T02:03:09.838Z,5.97
2022-11-07T02:05:47.433Z,6.38
2022-11-07T02:08:16.422Z,6.53
2022-11-07T02:10:44.589Z,6.68
2022-11-07T02:13:17.864Z,6.95
2022-11-07T02:15:44.795Z,7.18
2022-11-07T02:18:11.944Z,7.47
2022-11-07T02:20:39.197Z,7.05
2022-11-07T02:23:12.506Z,6.93
2022-11-07T02:25:39.740Z,7.57
2022-11-07T02:28:10.266Z,6.85
2022-11-07T02:30:39.068Z,6.47
2022-11-07T02:33:20.775Z,7.32
2022-11-07T02:35:50.178Z,7.22
2022-11-07T02:38:32.870Z,6.85
2022-11-07T02:41:12.253Z,6.93
2022-11-07T02:43:43.325Z,6.80
2022-11-07T02:46:13.236Z,7.20
2022-11-07T02:48:45.969Z,8.02
2022-11-07T02:51:13.055Z,7.18
2022-11-07T02:53:40.516Z,7.65
2022-11-07T02:56:07.811Z,7.28
2022-11-07T02:58:35.097Z,6.75
2022-11-07T03:01:07.236Z,6.20
2022-11-07T03:03:44.806Z,6.90
2022-11-07T03:06:16.705Z,6.25
2022-11-07T03:08:44.167Z,6.63
2022-11-07T03:11:12.220Z,5.95
2022-11-07T03:13:39.697Z,6.13
2022-11-07T03:16:07.917Z,5.53
2022-11-07T03:18:35.534Z,5.90
2022-11-07T03:21:02.973Z,6.25
2022-11-07T03:23:30.835Z,5.70
2022-11-07T03:25:57.925Z,6.95
2022-11-07T03:28:25.176Z,5.60
2022-11-07T03:30:52.437Z,5.28
2022-11-07T03:33:19.373Z,6.13
2022-11-07T03:35:46.441Z,6.10
2022-11-07T03:38:13.517Z,6.28
2022-11-07T03:40:40.622Z,5.50
2022-11-07T03:43:07.461Z,5.53
2022-11-07T03:45:34.319Z,5.22
2022-11-07T03:48:01.283Z,5.10
2022-11-07T03:50:28.365Z,5.47
2022-11-07T03:52:55.270Z,5.97
2022-11-07T03:55:22.314Z,6.13
2022-11-07T03:57:49.379Z,6.68
2022-11-07T04:00:17.850Z,5.78
2022-11-07T04:02:45.416Z,5.97
2022-11-07T04:05:12.793Z,5.38
2022-11-07T04:07:39.632Z,5.75
2022-11-07T04:10:07.038Z,4.80
2022-11-07T04:12:52.685Z,6.18
2022-11-07T04:15:38.485Z,5.72
2022-11-07T04:18:05.482Z,6.28
2022-11-07T04:20:32.350Z,6.30
2022-11-07T04:22:59.231Z,5.60
2022-11-07T04:25:44.575Z,6.40
2022-11-07T04:28:11.638Z,5.93
2022-11-07T04:30:38.504Z,6.70
2022-11-07T04:33:05.437Z,6.18
2022-11-07T04:35:33.599Z,6.55
2022-11-07T04:38:01.578Z,6.25
2022-11-07T04:40:29.645Z,6.53
2022-11-07T04:42:57.155Z,6.95
2022-11-07T04:45:24.268Z,6.70
2022-11-07T04:47:51.350Z,6.43
2022-11-07T04:50:19.866Z,6.15
2022-11-07T04:52:47.697Z,6.38
2022-11-07T04:55:23.679Z,6.10
2022-11-07T04:57:50.988Z,6.55
2022-11-07T05:00:18.911Z,7.05
2022-11-07T05:02:47.059Z,7.85
2022-11-07T05:05:14.412Z,6.63
2022-11-07T05:07:41.776Z,7.38
2022-11-07T05:10:14.622Z,6.82
2022-11-07T05:12:41.504Z,6.85
2022-11-07T05:15:09.369Z,8.57
2022-11-07T05:17:36.149Z,6.65
2022-11-07T05:20:03.932Z,6.82
2022-11-07T05:22:52.342Z,7.05
2022-11-07T05:25:23.240Z,6.70
2022-11-07T05:27:55.412Z,7.10
2022-11-07T05:30:22.304Z,6.38
2022-11-07T05:32:49.524Z,8.00
2022-11-07T05:35:16.553Z,7.45
2022-11-07T05:37:43.672Z,6.72
2022-11-07T05:40:11.221Z,6.82
2022-11-07T05:42:38.326Z,6.65
2022-11-07T05:45:06.221Z,8.07
2022-11-07T05:47:33.188Z,7.13
2022-11-07T05:50:00.213Z,8.25
2022-11-07T05:52:27.509Z,7.28
2022-11-07T05:54:54.669Z,7.03
2022-11-07T05:57:21.672Z,7.05
2022-11-07T05:59:48.608Z,7.03
2022-11-07T06:02:16.054Z,7.82
2022-11-07T06:04:43.317Z,7.05
2022-11-07T06:07:10.617Z,7.30
2022-11-07T06:09:37.495Z,7.35
2022-11-07T06:12:05.562Z,6.93
2022-11-07T06:14:33.098Z,7.53
2022-11-07T06:16:59.994Z,7.63
2022-11-07T06:19:27.041Z,7.07
2022-11-07T06:21:54.048Z,7.50
2022-11-07T06:24:20.970Z,8.13
2022-11-07T06:26:49.075Z,7.88
2022-11-07T06:29:16.209Z,7.88
2022-11-07T06:31:43.241Z,7.03
2022-11-07T06:34:10.017Z,8.57
2022-11-07T06:36:37.027Z,8.05
2022-11-07T06:39:04.110Z,8.02
2022-11-07T06:41:31.255Z,8.70
2022-11-07T06:43:58.452Z,9.50
2022-11-07T06:46:25.360Z,9.40
2022-11-07T06:48:52.230Z,8.30
2022-11-07T06:51:19.250Z,7.70
2022-11-07T06:53:46.425Z,8.98
2022-11-07T06:56:16.002Z,8.75
2022-11-07T06:58:43.340Z,12.15
2022-11-07T07:01:15.577Z,9.18
2022-11-07T07:03:43.919Z,8.05
2022-11-07T07:06:13.999Z,8.70
2022-11-07T07:08:41.169Z,7.10
2022-11-07T07:11:10.468Z,7.28
2022-11-07T07:13:38.535Z,6.85
2022-11-07T07:16:06.532Z,6.47
2022-11-07T07:18:34.582Z,7.07
2022-11-07T07:21:09.390Z,7.88
2022-11-07T07:23:37.401Z,6.85
2022-11-07T07:26:12.379Z,7.15
2022-11-07T07:28:39.676Z,6.93
2022-11-07T07:31:20.793Z,6.70
2022-11-07T07:33:48.700Z,7.38
2022-11-07T07:36:20.515Z,7.63
2022-11-07T07:38:49.557Z,7.25
2022-11-07T07:41:17.174Z,7.85
2022-11-07T07:43:44.848Z,6.55
2022-11-07T07:46:15.564Z,7.63
2022-11-07T07:48:42.654Z,7.53
2022-11-07T07:51:09.614Z,7.43
2022-11-07T07:53:36.665Z,7.43
2022-11-07T07:56:05.897Z,7.65
2022-11-07T07:58:33.707Z,7.75
2022-11-07T08:01:00.928Z,7.35
2022-11-07T08:03:32.029Z,7.68
2022-11-07T08:06:07.219Z,7.68
2022-11-07T08:08:38.162Z,7.97
2022-11-07T08:13:34.295Z,6.97
2022-11-07T08:16:03.925Z,6.75
2022-11-07T08:18:31.745Z,7.65
2022-11-07T08:20:59.705Z,6.90
2022-11-07T08:23:26.670Z,7.53
2022-11-07T08:25:56.169Z,6.15
2022-11-07T08:28:25.526Z,6.35
2022-11-07T08:31:09.375Z,6.90
2022-11-07T08:33:36.785Z,6.60
2022-11-07T08:36:05.500Z,8.13
2022-11-07T08:38:33.867Z,8.77
2022-11-07T08:41:00.904Z,6.88
2022-11-07T08:43:28.126Z,7.28
2022-11-07T08:45:55.784Z,6.55
2022-11-07T08:48:24.141Z,6.07
2022-11-07T08:50:55.475Z,5.43
2022-11-07T08:53:23.533Z,5.93
2022-11-07T08:55:50.466Z,6.65
2022-11-07T08:58:18.456Z,5.63
2022-11-07T09:00:45.595Z,7.28
2022-11-07T09:06:01.106Z,11.45
2022-11-07T09:08:28.303Z,6.57
2022-11-07T09:10:55.246Z,5.93
2022-11-07T09:13:22.544Z,5.78
2022-11-07T09:15:51.354Z,6.82
2022-11-07T09:18:20.225Z,5.90
2022-11-07T09:20:47.824Z,4.90
2022-11-07T09:23:15.443Z,5.93
2022-11-07T09:25:42.895Z,6.00
2022-11-07T09:28:10.014Z,6.78
2022-11-07T09:30:37.343Z,5.05
2022-11-07T09:33:04.653Z,5.53
2022-11-07T09:35:31.768Z,6.10
2022-11-07T09:37:59.056Z,5.88
2022-11-07T09:41:03.173Z,5.90
2022-11-07T09:44:12.539Z,5.90
2022-11-07T09:46:54.489Z,5.30
2022-11-07T09:49:46.646Z,5.18
2022-11-07T09:52:37.057Z,4.93
2022-11-07T09:55:27.784Z,5.80
2022-11-07T09:58:00.711Z,7.28
2022-11-07T10:00:31.150Z,6.38
2022-11-07T10:03:00.916Z,5.57
2022-11-07T10:06:00.092Z,6.18
2022-11-07T10:08:46.147Z,6.35
2022-11-07T10:11:35.277Z,5.70
2022-11-07T10:14:22.307Z,7.28
2022-11-07T10:17:43.387Z,5.50
2022-11-07T10:20:29.866Z,8.87
2022-11-07T10:23:04.015Z,8.15
2022-11-07T10:26:05.102Z,4.65
2022-11-07T10:28:33.013Z,6.70
2022-11-07T10:31:02.668Z,7.80
2022-11-07T10:33:55.071Z,5.50
2022-11-07T10:36:31.418Z,5.95
2022-11-07T10:38:59.167Z,6.18
2022-11-07T10:41:31.919Z,6.63
2022-11-07T10:44:03.843Z,4.38
2022-11-07T10:46:41.703Z,5.00
2022-11-07T10:49:23.864Z,5.10
2022-11-07T10:51:52.164Z,6.45
2022-11-07T10:54:40.485Z,6.15
2022-11-07T10:57:11.909Z,6.13
2022-11-07T11:00:08.575Z,5.75
2022-11-07T11:02:48.055Z,5.72
2022-11-07T11:05:41.442Z,6.05
2022-11-07T11:08:16.354Z,5.93
2022-11-07T11:10:44.607Z,5.25
2022-11-07T11:13:30.277Z,5.65
2022-11-07T11:16:05.275Z,6.00
2022-11-07T11:18:57.624Z,5.70
2022-11-07T11:21:25.792Z,6.23
2022-11-07T11:23:54.865Z,6.28
2022-11-07T11:26:28.052Z,6.30
2022-11-07T11:29:17.537Z,7.15
2022-11-07T11:31:57.184Z,7.03
2022-11-07T11:35:02.487Z,6.70
2022-11-07T11:37:32.779Z,7.05
2022-11-07T11:40:07.767Z,6.78
2022-11-07T11:42:46.206Z,6.30
2022-11-07T11:45:33.797Z,6.95
2022-11-07T11:48:11.244Z,6.22
2022-11-07T11:50:55.097Z,6.68
2022-11-07T11:53:23.319Z,6.15
2022-11-07T11:56:13.666Z,6.93
2022-11-07T11:58:53.692Z,6.82
2022-11-07T12:01:41.868Z,12.40
2022-11-07T12:04:54.203Z,6.47
2022-11-07T12:07:43.343Z,7.10
2022-11-07T12:10:29.849Z,7.85
2022-11-07T12:13:15.201Z,7.70
2022-11-07T12:15:57.654Z,7.15
2022-11-07T12:19:02.770Z,11.52
2022-11-07T12:21:48.751Z,6.38
2022-11-07T12:24:24.840Z,7.15
2022-11-07T12:27:04.608Z,5.63
2022-11-07T12:29:54.157Z,9.07
2022-11-07T12:32:48.157Z,6.45
2022-11-07T12:35:36.627Z,23.33
2022-11-07T12:38:03.691Z,10.02
2022-11-07T12:41:00.025Z,6.80
2022-11-07T12:43:49.942Z,6.28
2022-11-07T12:46:26.836Z,6.47
2022-11-07T12:49:07.989Z,5.63
2022-11-07T12:51:50.199Z,5.18
2022-11-07T12:54:19.994Z,5.97
2022-11-07T12:56:48.691Z,5.43
2022-11-07T12:59:28.573Z,5.70
2022-11-07T13:02:16.895Z,5.43
2022-11-07T13:05:01.059Z,6.05
2022-11-07T13:07:46.355Z,6.38
2022-11-07T13:10:21.713Z,4.90
2022-11-07T13:12:56.053Z,7.45
2022-11-07T13:15:23.695Z,6.57
2022-11-07T13:17:51.572Z,9.40
2022-11-07T13:20:21.596Z,42.83
2022-11-07T13:22:50.908Z,9.73
2022-11-07T13:25:17.954Z,5.78
2022-11-07T13:28:06.524Z,6.53
2022-11-07T13:30:40.158Z,6.30
2022-11-07T13:33:24.315Z,6.30
2022-11-07T13:35:57.755Z,12.77
2022-11-07T13:38:27.734Z,8.25
2022-11-07T13:41:04.636Z,7.18
2022-11-07T13:43:54.366Z,5.88
2022-11-07T13:46:22.178Z,5.90
2022-11-07T13:48:51.445Z,5.05
2022-11-07T13:51:43.183Z,6.43
2022-11-07T13:54:34.733Z,5.43
2022-11-07T13:57:11.026Z,5.63
2022-11-07T14:00:05.594Z,5.05
2022-11-07T14:03:04.076Z,7.13
2022-11-07T14:05:36.868Z,9.75
2022-11-07T14:08:15.828Z,6.65
2022-11-07T14:10:49.451Z,10.20
2022-11-07T14:13:19.706Z,7.03
2022-11-07T14:15:54.284Z,8.48
2022-11-07T14:18:23.546Z,6.90
2022-11-07T14:20:53.900Z,7.47
2022-11-07T14:23:23.721Z,5.87
2022-11-07T14:26:22.691Z,5.95
2022-11-07T14:28:50.879Z,5.80
2022-11-07T14:31:19.333Z,7.18
2022-11-07T14:33:52.083Z,7.80
2022-11-07T14:36:20.426Z,6.97
2022-11-07T14:39:00.493Z,8.98
2022-11-07T14:41:27.887Z,9.30
2022-11-07T14:43:57.399Z,8.02
2022-11-07T14:46:25.790Z,10.48
2022-11-07T14:48:53.563Z,10.35
2022-11-07T14:51:27.159Z,10.82
2022-11-07T14:54:00.312Z,11.05
2022-11-07T14:56:35.687Z,10.30
2022-11-07T14:59:04.079Z,51.30
2022-11-07T15:01:33.833Z,16.33
2022-11-07T15:04:14.731Z,23.40
2022-11-07T15:06:47.567Z,31.40
2022-11-07T15:09:15.440Z,25.38
2022-11-07T15:11:56.098Z,29.65
2022-11-07T15:14:26.672Z,61.67
2022-11-07T15:16:54.542Z,51.28
2022-11-07T15:19:23.865Z,41.47
2022-11-07T15:22:01.053Z,37.63
2022-11-07T15:24:46.460Z,30.83
2022-11-07T15:27:13.581Z,24.67
2022-11-07T15:29:50.801Z,23.45
2022-11-07T15:32:20.478Z,30.25
2022-11-07T15:35:12.506Z,29.73
2022-11-07T15:37:38.677Z,33.15
2022-11-07T15:40:18.768Z,34.08
2022-11-07T15:42:46.597Z,32.93
2022-11-07T15:45:13.579Z,34.42
2022-11-07T15:47:40.975Z,27.70
2022-11-07T15:50:18.435Z,24.27
2022-11-07T15:52:47.334Z,28.80
2022-11-07T15:55:19.758Z,41.72
2022-11-07T15:57:49.716Z,41.22
2022-11-07T16:00:42.223Z,39.13
2022-11-07T16:03:17.705Z,45.30
2022-11-07T16:05:47.971Z,45.72
2022-11-07T16:08:18.439Z,49.58
2022-11-07T16:10:48.856Z,49.28
2022-11-07T16:13:16.499Z,50.85
2022-11-07T16:15:50.361Z,43.65
2022-11-07T16:18:24.289Z,39.22
2022-11-07T16:20:54.948Z,41.45
2022-11-07T16:23:25.905Z,38.75
2022-11-07T16:26:22.564Z,69.47
2022-11-07T16:28:50.226Z,88.07
2022-11-07T16:31:17.508Z,79.78
2022-11-07T16:33:44.790Z,74.13
2022-11-07T16:36:25.390Z,66.05
2022-11-07T16:38:53.293Z,61.47
2022-11-07T16:41:20.428Z,60.90
2022-11-07T16:43:47.885Z,54.75
2022-11-07T16:46:17.117Z,55.63
2022-11-07T16:48:46.019Z,52.90
2022-11-07T16:51:24.350Z,53.90
2022-11-07T16:54:09.667Z,50.47
2022-11-07T16:56:38.119Z,41.80
2022-11-07T16:59:08.004Z,36.95
2022-11-07T17:01:36.412Z,37.63
2022-11-07T17:04:04.029Z,36.65
2022-11-07T17:06:33.755Z,39.05
2022-11-07T17:09:08.954Z,40.03
2022-11-07T17:11:40.475Z,35.80
2022-11-07T17:14:07.582Z,30.10
2022-11-07T17:16:36.990Z,25.73
2022-11-07T17:19:05.513Z,27.75
2022-11-07T17:21:37.628Z,35.28
2022-11-07T17:24:05.212Z,31.70
2022-11-07T17:26:35.859Z,25.75
2022-11-07T17:29:04.815Z,46.88
2022-11-07T17:31:31.872Z,45.40
2022-11-07T17:33:59.341Z,31.38
2022-11-07T17:36:35.332Z,26.10
2022-11-07T17:39:11.889Z,24.92
2022-11-07T17:41:43.745Z,22.30
2022-11-07T17:44:11.781Z,22.13
2022-11-07T17:46:49.153Z,23.50
2022-11-07T17:49:18.975Z,23.23
2022-11-07T17:51:46.647Z,25.13
2022-11-07T17:54:15.339Z,23.13
2022-11-07T17:56:43.098Z,23.83
2022-11-07T17:59:16.297Z,23.30
2022-11-07T18:01:44.112Z,32.80
2022-11-07T18:04:13.363Z,31.75
2022-11-07T18:06:42.900Z,87.68
2022-11-07T18:09:15.055Z,105.60
2022-11-07T18:11:42.220Z,40.90
2022-11-07T18:14:11.130Z,29.60
2022-11-07T18:16:38.252Z,27.58
2022-11-07T18:19:06.208Z,24.98
2022-11-07T18:21:33.607Z,27.13
2022-11-07T18:24:00.861Z,29.73
2022-11-07T18:26:31.087Z,28.27
2022-11-07T18:29:02.167Z,28.88
2022-11-07T18:31:29.928Z,26.75
2022-11-07T18:34:00.310Z,27.13
2022-11-07T18:36:28.123Z,23.13
2022-11-07T18:38:55.140Z,21.02
2022-11-07T18:41:24.227Z,24.83
2022-11-07T18:43:51.325Z,21.95
2022-11-07T18:46:19.456Z,19.58
2022-11-07T18:48:46.827Z,19.77
2022-11-07T18:51:20.966Z,17.45
2022-11-07T18:53:49.268Z,16.52
2022-11-07T18:56:22.806Z,17.83
2022-11-07T18:58:49.888Z,17.45
2022-11-07T19:01:20.320Z,21.90
2022-11-07T19:03:48.147Z,21.90
2022-11-07T19:06:17.883Z,27.20
2022-11-07T19:08:49.728Z,21.65
2022-11-07T19:11:36.176Z,22.52
2022-11-07T19:14:03.740Z,21.58
2022-11-07T19:16:30.947Z,22.60
2022-11-07T19:19:02.121Z,25.45
2022-11-07T19:21:29.152Z,25.85
2022-11-07T19:23:56.248Z,27.85
2022-11-07T19:26:24.695Z,28.27
2022-11-07T19:28:53.843Z,28.08
2022-11-07T19:31:21.036Z,26.35
2022-11-07T19:33:47.990Z,25.42
2022-11-07T19:36:23.527Z,30.40
2022-11-07T19:38:51.234Z,28.40
2022-11-07T19:41:18.773Z,26.83
2022-11-07T19:43:50.060Z,31.17
2022-11-07T19:46:20.337Z,38.33
2022-11-07T19:48:48.488Z,32.55
2022-11-07T19:51:21.552Z,36.85
2022-11-07T19:53:55.198Z,34.42
2022-11-07T19:56:23.896Z,29.15
2022-11-07T19:58:51.207Z,23.83
2022-11-07T20:01:21.798Z,19.05
2022-11-07T20:03:51.836Z,20.63
2022-11-07T20:06:27.455Z,19.92
2022-11-07T20:08:54.581Z,24.65
2022-11-07T20:11:24.306Z,21.15
2022-11-07T20:13:52.917Z,21.48
2022-11-07T20:16:20.011Z,18.73
2022-11-07T20:18:47.083Z,19.08
2022-11-07T20:21:16.806Z,17.65
2022-11-07T20:23:45.499Z,17.17
2022-11-07T20:26:16.226Z,19.10
2022-11-07T20:28:43.670Z,13.45
2022-11-07T20:31:23.233Z,18.08
2022-11-07T20:33:50.454Z,18.48
2022-11-07T20:36:18.535Z,18.85
2022-11-07T20:38:46.252Z,19.88
2022-11-07T20:41:14.112Z,21.52
2022-11-07T20:43:43.788Z,18.90
2022-11-07T20:46:15.049Z,18.65
2022-11-07T20:48:42.394Z,17.77
2022-11-07T20:51:12.015Z,18.77
2022-11-07T20:53:39.985Z,22.52
2022-11-07T20:56:08.272Z,22.92
2022-11-07T20:58:37.570Z,19.90
2022-11-07T21:01:06.563Z,20.30
2022-11-07T21:03:34.925Z,18.77
2022-11-07T21:06:02.152Z,16.73
2022-11-07T21:08:33.162Z,17.40
2022-11-07T21:11:03.197Z,17.17
2022-11-07T21:13:30.127Z,17.50
2022-11-07T21:15:57.428Z,18.00
2022-11-07T21:18:25.586Z,20.45
2022-11-07T21:21:26.252Z,21.63
2022-11-07T21:23:54.593Z,20.65
2022-11-07T21:26:26.758Z,22.17
2022-11-07T21:28:55.085Z,20.20
2022-11-07T21:31:25.051Z,18.48
2022-11-07T21:33:52.432Z,19.85
2022-11-07T21:36:21.947Z,20.17
2022-11-07T21:38:49.042Z,19.05
2022-11-07T21:41:16.740Z,19.95
2022-11-07T21:43:52.809Z,18.90
2022-11-07T21:46:22.841Z,17.05
2022-11-07T21:48:50.262Z,17.35
2022-11-07T21:51:26.101Z,15.82
2022-11-07T21:53:53.539Z,13.82
2022-11-07T21:56:22.923Z,13.63
2022-11-07T21:58:51.967Z,13.55
2022-11-07T22:01:21.185Z,12.40
2022-11-07T22:04:06.230Z,11.05
2022-11-07T22:06:36.795Z,13.43
2022-11-07T22:09:05.325Z,13.32
2022-11-07T22:11:32.313Z,12.63
2022-11-07T22:13:59.480Z,12.18
2022-11-07T22:16:26.781Z,13.52
2022-11-07T22:18:53.864Z,12.93
2022-11-07T22:21:23.380Z,13.30
2022-11-07T22:23:51.481Z,13.02
2022-11-07T22:26:21.229Z,14.32
2022-11-07T22:28:49.008Z,13.93
2022-11-07T22:31:22.814Z,14.50
2022-11-07T22:33:52.031Z,13.48
2022-11-07T22:36:19.448Z,12.65
2022-11-07T22:38:46.585Z,13.30
2022-11-07T22:41:19.692Z,16.42
2022-11-07T22:43:47.665Z,17.05
2022-11-07T22:46:16.933Z,14.95
2022-11-07T22:48:45.386Z,15.45
2022-11-07T22:51:14.649Z,14.20
2022-11-07T22:53:41.896Z,12.60
2022-11-07T22:56:12.019Z,14.65
2022-11-07T22:58:39.773Z,13.82
2022-11-07T23:01:13.446Z,14.77
2022-11-07T23:03:40.339Z,15.23
2022-11-07T23:06:07.553Z,13.70
2022-11-07T23:08:35.387Z,14.77
2022-11-07T23:11:40.519Z,14.45
2022-11-07T23:14:00.521Z,15.55
2022-11-07T23:16:35.095Z,15.43
2022-11-07T23:19:05.007Z,15.48
2022-11-07T23:21:33.089Z,15.07
2022-11-07T23:24:01.202Z,14.52
2022-11-07T23:26:33.938Z,14.70
2022-11-07T23:29:10.771Z,13.98
2022-11-07T23:31:43.149Z,13.90
2022-11-07T23:34:10.947Z,15.73
2022-11-07T23:36:38.130Z,22.20
2022-11-07T23:39:07.760Z,18.17
2022-11-07T23:41:35.229Z,15.98
2022-11-07T23:44:02.695Z,16.20
2022-11-07T23:46:48.246Z,15.68
2022-11-07T23:49:33.813Z,16.35
2022-11-07T23:52:00.928Z,16.33
2022-11-07T23:54:46.161Z,16.45
2022-11-07T23:57:13.325Z,16.20
2022-11-07T23:59:59.265Z,15.82
